Nadi International Airport
NFFN : now visible

Airfield :











YOU CAN JOIN US ON...

 
LOGIN :

Register | Disclaimer

   EN    FR    IT 

 









Legend :    VFR   Marginal VFR   IFR   Intensive IFR   Very Intensive IFR
Visi :
Ceiling :
>= 8 km
>= 3000ft
5 to 8 km
1000 to 3000 ft
1500m to 5 km
500 to 1000 ft
800 to 1500m
200 to 500 ft
< 800m
< 200 ft
Symbols :   Thunderstorms  Fog  Heavy snow  Heavy precipitations  Wind > 20 kt






- Airport Elevation : 59 ft
- IATA code : NAN


NFFN - Nadi International

CURRENT METAR :
  • 071100Z 06020KT 9999 -SHRA SCT022TCU BKN044 OVC100 28/23 Q1002 TEMPO 3000 TSRA

EXPIRED METARs :
  • 071000Z 06016KT 9999 SCT022TCU BKN044 OVC100 28/23 Q1003 TEMPO 3000 TSRA
  • 070900Z 07017KT 9999 -SHRA SCT022TCU BKN044 OVC100 26/24 Q1003 TEMPO 3000 TSRA

TAF AMD TAF NFFN
Valid from the 07 at 10:00 until the 08 at 06:00 UTC


071004Z 0710/0806 04018G30KT 9999 -RA SCT020 BKN040 OVC100
TEMPO 0710/0712 3000 TSRA BKN015 FEW018CB
TEMPO 0712/0714 1500 +TSRA BKN015 SCT017CB
BECMG 0712/0714 35025G40KT
FM071400 34035G50KT 7000 RA BKN018 OVC045
TEMPO 0714/0724 34040G60KT 1000 +TSRA BKN007 SCT012CB
FM080000 34035G50KT 7000 RA BKN018 OVC045



MET'MAP, your aeronautical weather chart ! - Copyright ORBIFLY December 2007 - Disclaimer

ORBIFLY MET'MAP TEAM :

Programming & Development : Alexandra Zaïnal
Concept & original design : Baudouin d'Aumeries
Assistance for programming : Marc-Olivier Méhu
Technical & hardware support : Manuel Goepfert

Contact : metmap@orbifly.com




SOURCES & CREDITS :

   NOAA       Earth
Advisory